sensor_id;sensor_type;location;lat;lon;timestamp;pressure;altitude;pressure_sealevel;temperature;humidity
22047;BME280;11187;49.412;20.956;2023-05-21T00:00:03;95550.81;;;12.54;100.00
22047;BME280;11187;49.412;20.956;2023-05-21T00:02:52;95561.09;;;12.52;100.00
22047;BME280;11187;49.412;20.956;2023-05-21T00:05:25;95551.72;;;12.50;100.00
22047;BME280;11187;49.412;20.956;2023-05-21T00:08:11;95549.28;;;12.44;100.00
22047;BME280;11187;49.412;20.956;2023-05-21T00:10:46;95550.16;;;12.43;100.00
22047;BME280;11187;49.412;20.956;2023-05-21T00:13:40;95545.88;;;12.42;100.00
22047;BME280;11187;49.412;20.956;2023-05-21T00:16:34;95551.00;;;12.42;100.00
22047;BME280;11187;49.412;20.956;2023-05-21T00:19:28;95550.19;;;12.40;100.00
22047;BME280;11187;49.412;20.956;2023-05-21T00:22:01;95549.34;;;12.41;100.00
22047;BME280;11187;49.412;20.956;2023-05-21T00:24:48;95551.09;;;12.37;100.00
22047;BME280;11187;49.412;20.956;2023-05-21T00:27:21;95546.88;;;12.35;100.00
22047;BME280;11187;49.412;20.956;2023-05-21T00:30:15;95546.88;;;12.33;100.00
22047;BME280;11187;49.412;20.956;2023-05-21T00:32:49;95551.22;;;12.31;100.00
22047;BME280;11187;49.412;20.956;2023-05-21T00:35:44;95550.44;;;12.27;100.00
22047;BME280;11187;49.412;20.956;2023-05-21T00:38:38;95544.47;;;12.27;100.00
22047;BME280;11187;49.412;20.956;2023-05-21T00:41:11;95541.06;;;12.25;100.00
22047;BME280;11187;49.412;20.956;2023-05-21T00:44:06;95547.94;;;12.23;100.00
22047;BME280;11187;49.412;20.956;2023-05-21T00:46:40;95543.69;;;12.22;100.00
22047;BME280;11187;49.412;20.956;2023-05-21T00:49:34;95541.19;;;12.17;100.00
22047;BME280;11187;49.412;20.956;2023-05-21T00:52:28;95540.41;;;12.15;100.00
22047;BME280;11187;49.412;20.956;2023-05-21T00:55:01;95542.97;;;12.14;100.00
22047;BME280;11187;49.412;20.956;2023-05-21T00:57:48;95537.03;;;12.10;100.00
22047;BME280;11187;49.412;20.956;2023-05-21T01:00:21;95543.06;;;12.09;100.00
22047;BME280;11187;49.412;20.956;2023-05-21T01:03:09;95541.44;;;12.03;100.00
22047;BME280;11187;49.412;20.956;2023-05-21T01:05:45;95545.78;;;12.00;100.00
22047;BME280;11187;49.412;20.956;2023-05-21T01:08:39;95530.47;;;11.95;100.00
22047;BME280;11187;49.412;20.956;2023-05-21T01:11:13;95538.19;;;11.94;100.00
22047;BME280;11187;49.412;20.956;2023-05-21T01:14:01;95540.81;;;11.89;100.00
22047;BME280;11187;49.412;20.956;2023-05-21T01:16:36;95540.03;;;11.85;100.00
22047;BME280;11187;49.412;20.956;2023-05-21T01:19:23;95534.94;;;11.81;100.00
22047;BME280;11187;49.412;20.956;2023-05-21T01:22:03;95545.25;;;11.78;100.00
22047;BME280;11187;49.412;20.956;2023-05-21T01:24:58;95532.50;;;11.75;100.00
22047;BME280;11187;49.412;20.956;2023-05-21T01:27:34;95536.81;;;11.71;100.00
22047;BME280;11187;49.412;20.956;2023-05-21T01:30:22;95534.31;;;11.68;100.00
22047;BME280;11187;49.412;20.956;2023-05-21T01:33:03;95530.03;;;11.67;100.00
22047;BME280;11187;49.412;20.956;2023-05-21T01:36:12;95524.06;;;11.65;100.00
22047;BME280;11187;49.412;20.956;2023-05-21T01:39:10;95522.47;;;11.59;100.00
22047;BME280;11187;49.412;20.956;2023-05-21T01:42:02;95519.09;;;11.56;100.00
22047;BME280;11187;49.412;20.956;2023-05-21T01:44:36;95520.03;;;11.52;100.00
22047;BME280;11187;49.412;20.956;2023-05-21T01:47:32;95511.53;;;11.46;100.00
22047;BME280;11187;49.412;20.956;2023-05-21T01:50:08;95512.44;;;11.44;100.00
22047;BME280;11187;49.412;20.956;2023-05-21T01:53:02;95513.34;;;11.41;100.00
22047;BME280;11187;49.412;20.956;2023-05-21T01:55:56;95508.22;;;11.40;100.00
22047;BME280;11187;49.412;20.956;2023-05-21T01:58:51;95503.97;;;11.39;100.00
22047;BME280;11187;49.412;20.956;2023-05-21T02:01:24;95504.03;;;11.36;100.00
22047;BME280;11187;49.412;20.956;2023-05-21T02:04:19;95503.22;;;11.32;100.00
22047;BME280;11187;49.412;20.956;2023-05-21T02:07:13;95504.97;;;11.30;100.00
22047;BME280;11187;49.412;20.956;2023-05-21T02:09:50;95511.81;;;11.28;100.00
22047;BME280;11187;49.412;20.956;2023-05-21T02:12:37;95504.19;;;11.25;100.00
22047;BME280;11187;49.412;20.956;2023-05-21T02:15:10;95502.47;;;11.24;100.00
22047;BME280;11187;49.412;20.956;2023-05-21T02:17:58;95503.38;;;11.21;100.00
22047;BME280;11187;49.412;20.956;2023-05-21T02:20:31;95504.25;;;11.20;100.00
22047;BME280;11187;49.412;20.956;2023-05-21T02:23:26;95500.03;;;11.18;100.00
22047;BME280;11187;49.412;20.956;2023-05-21T02:25:59;95500.03;;;11.16;100.00
22047;BME280;11187;49.412;20.956;2023-05-21T02:28:53;95496.66;;;11.14;100.00
22047;BME280;11187;49.412;20.956;2023-05-21T02:31:47;95505.22;;;11.13;100.00
22047;BME280;11187;49.412;20.956;2023-05-21T02:34:20;95495.81;;;11.12;100.00
22047;BME280;11187;49.412;20.956;2023-05-21T02:37:16;95494.16;;;11.08;100.00
22047;BME280;11187;49.412;20.956;2023-05-21T02:39:49;95489.13;;;11.03;100.00
22047;BME280;11187;49.412;20.956;2023-05-21T02:42:43;95489.16;;;11.00;100.00
22047;BME280;11187;49.412;20.956;2023-05-21T02:45:16;95489.16;;;11.00;100.00
22047;BME280;11187;49.412;20.956;2023-05-21T02:48:03;95499.47;;;10.97;100.00
22047;BME280;11187;49.412;20.956;2023-05-21T02:50:36;95494.38;;;10.94;100.00
22047;BME280;11187;49.412;20.956;2023-05-21T02:53:30;95496.97;;;10.93;100.00
22047;BME280;11187;49.412;20.956;2023-05-21T02:56:24;95496.13;;;10.91;100.00
22047;BME280;11187;49.412;20.956;2023-05-21T02:58:58;95494.44;;;10.90;100.00
22047;BME280;11187;49.412;20.956;2023-05-21T03:01:52;95493.59;;;10.87;100.00
22047;BME280;11187;49.412;20.956;2023-05-21T03:04:25;95491.94;;;10.85;100.00
22047;BME280;11187;49.412;20.956;2023-05-21T03:07:18;95500.50;;;10.85;100.00
22047;BME280;11187;49.412;20.956;2023-05-21T03:09:51;95497.94;;;10.84;100.00
22047;BME280;11187;49.412;20.956;2023-05-21T03:12:45;95494.53;;;10.83;100.00
22047;BME280;11187;49.412;20.956;2023-05-21T03:15:40;95496.22;;;10.83;100.00
22047;BME280;11187;49.412;20.956;2023-05-21T03:18:13;95492.84;;;10.81;100.00
22047;BME280;11187;49.412;20.956;2023-05-21T03:21:00;95492.84;;;10.81;100.00
22047;BME280;11187;49.412;20.956;2023-05-21T03:23:33;95488.59;;;10.80;100.00
22047;BME280;11187;49.412;20.956;2023-05-21T03:26:22;95488.59;;;10.80;100.00
22047;BME280;11187;49.412;20.956;2023-05-21T03:28:56;95486.03;;;10.81;100.00
22047;BME280;11187;49.412;20.956;2023-05-21T03:31:43;95485.97;;;10.83;100.00
22047;BME280;11187;49.412;20.956;2023-05-21T03:34:16;95486.84;;;10.83;100.00
22047;BME280;11187;49.412;20.956;2023-05-21T03:37:03;95475.72;;;10.83;100.00
22047;BME280;11187;49.412;20.956;2023-05-21T03:39:36;95482.56;;;10.85;100.00
22047;BME280;11187;49.412;20.956;2023-05-21T03:42:23;95480.78;;;10.87;100.00
22047;BME280;11187;49.412;20.956;2023-05-21T03:44:56;95485.91;;;10.91;100.00
22047;BME280;11187;49.412;20.956;2023-05-21T03:47:43;95485.84;;;10.95;100.00
22047;BME280;11187;49.412;20.956;2023-05-21T03:50:16;95482.38;;;10.98;100.00
22047;BME280;11187;49.412;20.956;2023-05-21T03:53:10;95489.16;;;11.00;100.00
22047;BME280;11187;49.412;20.956;2023-05-21T03:55:43;95484.03;;;11.02;100.00
22047;BME280;11187;49.412;20.956;2023-05-21T03:58:34;95487.44;;;11.02;100.00
22047;BME280;11187;49.412;20.956;2023-05-21T04:01:07;95490.81;;;11.04;100.00
22047;BME280;11187;49.412;20.956;2023-05-21T04:04:01;95485.63;;;11.09;100.00
22047;BME280;11187;49.412;20.956;2023-05-21T04:06:55;95485.56;;;11.14;100.00
22047;BME280;11187;49.412;20.956;2023-05-21T04:09:28;95480.44;;;11.14;100.00
22047;BME280;11187;49.412;20.956;2023-05-21T04:12:16;95488.03;;;11.20;100.00
22047;BME280;11187;49.412;20.956;2023-05-21T04:14:51;95488.00;;;11.21;100.00
22047;BME280;11187;49.412;20.956;2023-05-21T04:17:38;95487.16;;;11.22;100.00
22047;BME280;11187;49.412;20.956;2023-05-21T04:20:12;95488.81;;;11.26;100.00
22047;BME280;11187;49.412;20.956;2023-05-21T04:23:06;95487.84;;;11.31;100.00
22047;BME280;11187;49.412;20.956;2023-05-21T04:26:00;95493.66;;;11.43;100.00
22047;BME280;11187;49.412;20.956;2023-05-21T04:28:54;95490.84;;;11.59;100.00
22047;BME280;11187;49.412;20.956;2023-05-21T04:31:29;95489.78;;;11.72;100.00
22047;BME280;11187;49.412;20.956;2023-05-21T04:34:23;95487.78;;;11.89;100.00
22047;BME280;11187;49.412;20.956;2023-05-21T04:37:19;95488.31;;;12.08;100.00
22047;BME280;11187;49.412;20.956;2023-05-21T04:39:56;95482.03;;;12.25;100.00
22047;BME280;11187;49.412;20.956;2023-05-21T04:42:43;95484.22;;;12.45;100.00
22047;BME280;11187;49.412;20.956;2023-05-21T04:45:18;95483.88;;;12.62;100.00
22047;BME280;11187;49.412;20.956;2023-05-21T04:48:13;95486.03;;;12.80;100.00
22047;BME280;11187;49.412;20.956;2023-05-21T04:51:07;95483.97;;;12.98;100.00
22047;BME280;11187;49.412;20.956;2023-05-21T04:54:01;95494.66;;;13.18;100.00
22047;BME280;11187;49.412;20.956;2023-05-21T04:56:35;95496.91;;;13.33;100.00
22047;BME280;11187;49.412;20.956;2023-05-21T04:59:22;95489.72;;;13.48;100.00
22047;BME280;11187;49.412;20.956;2023-05-21T05:01:55;95491.84;;;13.66;100.00
22047;BME280;11187;49.412;20.956;2023-05-21T05:04:42;95483.72;;;13.83;100.00
22047;BME280;11187;49.412;20.956;2023-05-21T05:07:15;95484.00;;;14.05;100.00
22047;BME280;11187;49.412;20.956;2023-05-21T05:10:09;95471.41;;;14.27;100.00
22047;BME280;11187;49.412;20.956;2023-05-21T05:13:03;95473.47;;;14.46;100.00
22047;BME280;11187;49.412;20.956;2023-05-21T05:15:36;95475.56;;;14.64;100.00
22047;BME280;11187;49.412;20.956;2023-05-21T05:18:32;95469.69;;;14.89;100.00
22047;BME280;11187;49.412;20.956;2023-05-21T05:21:27;95473.44;;;15.08;100.00
22047;BME280;11187;49.412;20.956;2023-05-21T05:24:00;95469.44;;;15.26;100.00
22047;BME280;11187;49.412;20.956;2023-05-21T05:26:47;95471.47;;;15.43;100.00
22047;BME280;11187;49.412;20.956;2023-05-21T05:29:20;95469.25;;;15.59;100.00
22047;BME280;11187;49.412;20.956;2023-05-21T05:32:07;95462.00;;;15.72;100.00
22047;BME280;11187;49.412;20.956;2023-05-21T05:34:40;95464.00;;;15.89;100.00
22047;BME280;11187;49.412;20.956;2023-05-21T05:37:27;95454.75;;;16.08;100.00
22047;BME280;11187;49.412;20.956;2023-05-21T05:40:00;95450.69;;;16.26;100.00
22047;BME280;11187;49.412;20.956;2023-05-21T05:42:47;95456.81;;;16.47;100.00
22047;BME280;11187;49.412;20.956;2023-05-21T05:45:21;95459.44;;;16.69;100.00
22047;BME280;11187;49.412;20.956;2023-05-21T05:48:08;95454.56;;;16.85;100.00
22047;BME280;11187;49.412;20.956;2023-05-21T05:50:41;95455.75;;;17.00;100.00
22047;BME280;11187;49.412;20.956;2023-05-21T05:53:43;95455.34;;;17.10;100.00
22047;BME280;11187;49.412;20.956;2023-05-21T05:56:37;95455.25;;;17.36;100.00
22047;BME280;11187;49.412;20.956;2023-05-21T05:59:31;95448.16;;;17.61;100.00
22047;BME280;11187;49.412;20.956;2023-05-21T06:02:05;95443.03;;;17.82;99.49
22047;BME280;11187;49.412;20.956;2023-05-21T06:04:52;95438.84;;;18.00;98.71
22047;BME280;11187;49.412;20.956;2023-05-21T06:07:25;95442.19;;;18.22;98.32
22047;BME280;11187;49.412;20.956;2023-05-21T06:10:12;95445.47;;;18.46;97.33
22047;BME280;11187;49.412;20.956;2023-05-21T06:12:45;95440.50;;;18.61;96.44
22047;BME280;11187;49.412;20.956;2023-05-21T06:15:32;95436.19;;;18.80;96.41
22047;BME280;11187;49.412;20.956;2023-05-21T06:18:05;95436.00;;;19.04;95.65
22047;BME280;11187;49.412;20.956;2023-05-21T06:20:52;95435.81;;;19.26;95.45
22047;BME280;11187;49.412;20.956;2023-05-21T06:23:25;95434.63;;;19.50;93.32
22047;BME280;11187;49.412;20.956;2023-05-21T06:26:12;95434.72;;;19.66;93.04
22047;BME280;11187;49.412;20.956;2023-05-21T06:28:45;95430.53;;;19.83;91.94
22047;BME280;11187;49.412;20.956;2023-05-21T06:31:32;95427.81;;;20.01;92.50
22047;BME280;11187;49.412;20.956;2023-05-21T06:34:05;95434.50;;;20.23;91.26
22047;BME280;11187;49.412;20.956;2023-05-21T06:36:59;95426.69;;;20.40;89.76
22047;BME280;11187;49.412;20.956;2023-05-21T06:39:53;95429.13;;;20.61;89.63
22047;BME280;11187;49.412;20.956;2023-05-21T06:42:26;95420.56;;;20.75;88.88
22047;BME280;11187;49.412;20.956;2023-05-21T06:45:13;95421.09;;;20.97;88.35
22047;BME280;11187;49.412;20.956;2023-05-21T06:47:46;95420.84;;;21.18;86.37
22047;BME280;11187;49.412;20.956;2023-05-21T06:50:33;95411.69;;;21.42;86.34
22047;BME280;11187;49.412;20.956;2023-05-21T06:53:06;95412.72;;;21.70;84.81
22047;BME280;11187;49.412;20.956;2023-05-21T06:55:55;95408.66;;;21.80;81.32
22047;BME280;11187;49.412;20.956;2023-05-21T06:58:49;95407.19;;;21.90;81.51
22047;BME280;11187;49.412;20.956;2023-05-21T07:01:43;95401.16;;;22.04;73.92
22047;BME280;11187;49.412;20.956;2023-05-21T07:04:16;95407.91;;;22.23;71.48
22047;BME280;11187;49.412;20.956;2023-05-21T07:07:03;95402.44;;;22.42;73.37
22047;BME280;11187;49.412;20.956;2023-05-21T07:09:36;95393.00;;;22.68;71.16
22047;BME280;11187;49.412;20.956;2023-05-21T07:12:30;95399.97;;;22.96;71.72
22047;BME280;11187;49.412;20.956;2023-05-21T07:15:24;95389.97;;;23.17;69.21
22047;BME280;11187;49.412;20.956;2023-05-21T07:18:18;95396.88;;;23.45;70.03
22047;BME280;11187;49.412;20.956;2023-05-21T07:20:51;95399.66;;;23.69;67.41
22047;BME280;11187;49.412;20.956;2023-05-21T07:23:38;95413.19;;;23.76;63.07
22047;BME280;11187;49.412;20.956;2023-05-21T07:26:11;95406.94;;;23.79;61.42
22047;BME280;11187;49.412;20.956;2023-05-21T07:29:05;95392.19;;;23.90;61.52
22047;BME280;11187;49.412;20.956;2023-05-21T07:31:38;95400.38;;;24.11;60.04
22047;BME280;11187;49.412;20.956;2023-05-21T07:34:32;95401.84;;;24.28;55.75
22047;BME280;11187;49.412;20.956;2023-05-21T07:37:05;95384.16;;;24.32;60.88
22047;BME280;11187;49.412;20.956;2023-05-21T07:39:59;95392.31;;;24.40;59.64
22047;BME280;11187;49.412;20.956;2023-05-21T07:42:32;95395.47;;;24.45;58.48
22047;BME280;11187;49.412;20.956;2023-05-21T07:45:26;95398.38;;;24.66;59.93
22047;BME280;11187;49.412;20.956;2023-05-21T07:47:59;95393.84;;;24.94;60.76
22047;BME280;11187;49.412;20.956;2023-05-21T07:50:46;95396.94;;;25.12;55.71
22047;BME280;11187;49.412;20.956;2023-05-21T07:53:21;95389.06;;;25.25;58.04
22047;BME280;11187;49.412;20.956;2023-05-21T07:56:11;95391.09;;;25.08;54.71
22047;BME280;11187;49.412;20.956;2023-05-21T07:59:05;95391.72;;;25.12;53.84
22047;BME280;11187;49.412;20.956;2023-05-21T08:01:39;95395.81;;;25.03;53.97
22047;BME280;11187;49.412;20.956;2023-05-21T08:04:33;95386.47;;;25.12;56.55
22047;BME280;11187;49.412;20.956;2023-05-21T08:07:07;95384.22;;;25.31;54.68
22047;BME280;11187;49.412;20.956;2023-05-21T08:09:56;95376.78;;;25.49;55.41
22047;BME280;11187;49.412;20.956;2023-05-21T08:12:30;95374.75;;;25.77;55.29
22047;BME280;11187;49.412;20.956;2023-05-21T08:15:17;95372.91;;;25.90;54.41
22047;BME280;11187;49.412;20.956;2023-05-21T08:17:50;95377.47;;;26.11;52.81
22047;BME280;11187;49.412;20.956;2023-05-21T08:20:38;95367.00;;;26.11;54.89
22047;BME280;11187;49.412;20.956;2023-05-21T08:23:11;95375.97;;;26.31;54.86
22047;BME280;11187;49.412;20.956;2023-05-21T08:26:05;95376.38;;;26.60;53.37
22047;BME280;11187;49.412;20.956;2023-05-21T08:29:02;95384.22;;;26.37;51.21
22047;BME280;11187;49.412;20.956;2023-05-21T08:31:35;95372.75;;;26.38;52.29
22047;BME280;11187;49.412;20.956;2023-05-21T08:34:22;95375.81;;;26.10;50.38
22047;BME280;11187;49.412;20.956;2023-05-21T08:36:55;95377.59;;;26.20;51.71
22047;BME280;11187;49.412;20.956;2023-05-21T08:39:42;95372.84;;;26.14;50.90
22047;BME280;11187;49.412;20.956;2023-05-21T08:42:38;95371.44;;;25.86;52.47
22047;BME280;11187;49.412;20.956;2023-05-21T08:45:36;95365.38;;;25.61;51.63
22047;BME280;11187;49.412;20.956;2023-05-21T08:48:31;95372.84;;;25.07;49.60
22047;BME280;11187;49.412;20.956;2023-05-21T08:51:04;95365.28;;;25.15;51.33
22047;BME280;11187;49.412;20.956;2023-05-21T08:53:58;95365.56;;;25.47;48.89
22047;BME280;11187;49.412;20.956;2023-05-21T08:56:34;95369.25;;;25.45;50.79
22047;BME280;11187;49.412;20.956;2023-05-21T08:59:24;95361.75;;;25.40;52.15
22047;BME280;11187;49.412;20.956;2023-05-21T09:01:59;95361.22;;;25.59;49.75
22047;BME280;11187;49.412;20.956;2023-05-21T09:04:55;95375.22;;;25.47;49.62
22047;BME280;11187;49.412;20.956;2023-05-21T09:07:30;95355.03;;;25.60;50.91
22047;BME280;11187;49.412;20.956;2023-05-21T09:10:35;95355.66;;;26.10;48.95
22047;BME280;11187;49.412;20.956;2023-05-21T09:13:09;95358.41;;;26.31;46.50
22047;BME280;11187;49.412;20.956;2023-05-21T09:15:56;95361.03;;;26.31;48.75
22047;BME280;11187;49.412;20.956;2023-05-21T09:18:29;95355.59;;;26.57;46.79
22047;BME280;11187;49.412;20.956;2023-05-21T09:23:57;95352.47;;;26.85;47.44
22047;BME280;11187;49.412;20.956;2023-05-21T09:26:52;95354.09;;;26.98;45.58
22047;BME280;11187;49.412;20.956;2023-05-21T09:29:25;95359.72;;;26.93;47.71
22047;BME280;11187;49.412;20.956;2023-05-21T09:32:12;95361.81;;;26.56;47.86
22047;BME280;11187;49.412;20.956;2023-05-21T09:34:46;95359.03;;;26.23;47.06
22047;BME280;11187;49.412;20.956;2023-05-21T09:37:39;95360.81;;;26.23;47.05
22047;BME280;11187;49.412;20.956;2023-05-21T09:40:20;95355.41;;;26.02;46.00
22047;BME280;11187;49.412;20.956;2023-05-21T09:43:14;95350.69;;;25.83;48.11
22047;BME280;11187;49.412;20.956;2023-05-21T09:46:08;95354.38;;;25.80;49.14
22047;BME280;11187;49.412;20.956;2023-05-21T09:48:42;95348.63;;;25.64;45.93
22047;BME280;11187;49.412;20.956;2023-05-21T09:51:29;95360.03;;;25.15;48.01
22047;BME280;11187;49.412;20.956;2023-05-21T09:54:03;95364.44;;;24.77;48.89
22047;BME280;11187;49.412;20.956;2023-05-21T09:56:59;95355.19;;;24.22;49.49
22047;BME280;11187;49.412;20.956;2023-05-21T09:59:53;95356.50;;;24.66;50.23
22047;BME280;11187;49.412;20.956;2023-05-21T10:02:27;95351.44;;;25.26;49.82
22047;BME280;11187;49.412;20.956;2023-05-21T10:05:28;95368.59;;;24.93;49.54
22047;BME280;11187;49.412;20.956;2023-05-21T10:08:03;95365.31;;;24.65;50.00
22047;BME280;11187;49.412;20.956;2023-05-21T10:10:57;95351.66;;;24.86;51.65
22047;BME280;11187;49.412;20.956;2023-05-21T10:14:05;95362.50;;;25.29;48.71
22047;BME280;11187;49.412;20.956;2023-05-21T10:16:39;95353.97;;;25.14;49.21
22047;BME280;11187;49.412;20.956;2023-05-21T10:19:29;95346.78;;;25.29;47.23
22047;BME280;11187;49.412;20.956;2023-05-21T10:22:04;95338.91;;;25.53;50.06
22047;BME280;11187;49.412;20.956;2023-05-21T10:24:51;95356.38;;;26.12;48.76
22047;BME280;11187;49.412;20.956;2023-05-21T10:27:24;95337.31;;;25.75;48.21
22047;BME280;11187;49.412;20.956;2023-05-21T10:30:20;95340.78;;;25.87;46.25
22047;BME280;11187;49.412;20.956;2023-05-21T10:32:56;95337.75;;;25.57;47.69
22047;BME280;11187;49.412;20.956;2023-05-21T10:35:52;95343.56;;;25.61;48.10
22047;BME280;11187;49.412;20.956;2023-05-21T10:38:26;95341.22;;;26.04;48.73
22047;BME280;11187;49.412;20.956;2023-05-21T10:41:21;95335.53;;;26.56;46.03
22047;BME280;11187;49.412;20.956;2023-05-21T10:46:58;95325.88;;;26.56;45.22
22047;BME280;11187;49.412;20.956;2023-05-21T10:52:49;95331.84;;;26.70;46.25
22047;BME280;11187;49.412;20.956;2023-05-21T10:55:28;95317.91;;;27.01;46.51
22047;BME280;11187;49.412;20.956;2023-05-21T11:01:41;95328.44;;;27.45;45.75
22047;BME280;11187;49.412;20.956;2023-05-21T11:04:35;95327.97;;;27.40;42.80
22047;BME280;11187;49.412;20.956;2023-05-21T11:08:17;95324.09;;;27.55;44.75
22047;BME280;11187;49.412;20.956;2023-05-21T11:11:11;95320.56;;;27.66;44.05
22047;BME280;11187;49.412;20.956;2023-05-21T11:13:47;95322.53;;;27.85;41.33
22047;BME280;11187;49.412;20.956;2023-05-21T11:16:44;95317.00;;;27.35;41.72
22047;BME280;11187;49.412;20.956;2023-05-21T11:19:40;95322.75;;;26.51;41.03
22047;BME280;11187;49.412;20.956;2023-05-21T11:22:23;95321.78;;;26.07;41.90
22047;BME280;11187;49.412;20.956;2023-05-21T11:25:10;95314.78;;;25.83;43.49
22047;BME280;11187;49.412;20.956;2023-05-21T11:27:46;95315.91;;;25.92;42.36
22047;BME280;11187;49.412;20.956;2023-05-21T11:30:33;95315.84;;;26.16;40.86
22047;BME280;11187;49.412;20.956;2023-05-21T11:35:57;95303.94;;;26.57;42.77
22047;BME280;11187;49.412;20.956;2023-05-21T11:38:30;95310.94;;;26.34;41.97
22047;BME280;11187;49.412;20.956;2023-05-21T11:41:24;95307.94;;;25.94;41.81
22047;BME280;11187;49.412;20.956;2023-05-21T11:44:36;95300.44;;;25.89;43.09
22047;BME280;11187;49.412;20.956;2023-05-21T11:47:15;95303.28;;;26.20;43.57
22047;BME280;11187;49.412;20.956;2023-05-21T11:50:13;95296.75;;;26.14;42.30
22047;BME280;11187;49.412;20.956;2023-05-21T11:53:07;95288.53;;;25.72;41.36
22047;BME280;11187;49.412;20.956;2023-05-21T11:55:40;95292.50;;;25.78;43.58
22047;BME280;11187;49.412;20.956;2023-05-21T11:58:30;95303.47;;;25.83;44.25
22047;BME280;11187;49.412;20.956;2023-05-21T12:01:03;95301.66;;;25.72;44.82
22047;BME280;11187;49.412;20.956;2023-05-21T12:03:50;95292.31;;;25.57;43.33
22047;BME280;11187;49.412;20.956;2023-05-21T12:06:26;95288.72;;;25.47;46.74
22047;BME280;11187;49.412;20.956;2023-05-21T12:09:13;95291.88;;;25.28;45.02
22047;BME280;11187;49.412;20.956;2023-05-21T12:11:46;95287.75;;;25.12;45.32
22047;BME280;11187;49.412;20.956;2023-05-21T12:14:47;95293.03;;;24.75;43.25
22047;BME280;11187;49.412;20.956;2023-05-21T12:17:41;95296.22;;;24.42;44.51
22047;BME280;11187;49.412;20.956;2023-05-21T12:20:35;95291.66;;;24.33;46.39
22047;BME280;11187;49.412;20.956;2023-05-21T12:23:23;95288.53;;;24.15;44.57
22047;BME280;11187;49.412;20.956;2023-05-21T12:26:10;95301.81;;;23.99;46.65
22047;BME280;11187;49.412;20.956;2023-05-21T12:28:44;95292.72;;;23.92;45.64
22047;BME280;11187;49.412;20.956;2023-05-21T12:31:31;95278.81;;;23.79;44.95
22047;BME280;11187;49.412;20.956;2023-05-21T12:34:04;95284.56;;;23.71;46.65
22047;BME280;11187;49.412;20.956;2023-05-21T12:36:51;95283.81;;;23.69;47.42
22047;BME280;11187;49.412;20.956;2023-05-21T12:39:24;95282.84;;;23.70;48.21
22047;BME280;11187;49.412;20.956;2023-05-21T12:42:12;95283.25;;;23.64;48.68
22047;BME280;11187;49.412;20.956;2023-05-21T12:44:46;95282.41;;;23.50;47.02
22047;BME280;11187;49.412;20.956;2023-05-21T12:47:33;95287.81;;;23.34;46.61
22047;BME280;11187;49.412;20.956;2023-05-21T12:50:07;95284.69;;;23.29;46.62
22047;BME280;11187;49.412;20.956;2023-05-21T12:52:56;95280.38;;;23.16;48.07
22047;BME280;11187;49.412;20.956;2023-05-21T12:55:30;95269.09;;;23.15;49.70
22047;BME280;11187;49.412;20.956;2023-05-21T12:58:20;95291.75;;;23.14;48.77
22047;BME280;11187;49.412;20.956;2023-05-21T13:00:53;95295.91;;;23.04;47.66
22047;BME280;11187;49.412;20.956;2023-05-21T13:03:44;95282.66;;;22.93;48.50
22047;BME280;11187;49.412;20.956;2023-05-21T13:06:17;95295.78;;;22.79;49.25
22047;BME280;11187;49.412;20.956;2023-05-21T13:09:05;95295.53;;;22.69;50.03
22047;BME280;11187;49.412;20.956;2023-05-21T13:11:38;95282.88;;;22.63;50.08
22047;BME280;11187;49.412;20.956;2023-05-21T13:14:32;95280.75;;;22.55;50.26
22047;BME280;11187;49.412;20.956;2023-05-21T13:17:26;95285.69;;;22.45;49.40
22047;BME280;11187;49.412;20.956;2023-05-21T13:22:58;95280.31;;;22.34;50.24
22047;BME280;11187;49.412;20.956;2023-05-21T13:25:52;95288.69;;;22.25;50.72
22047;BME280;11187;49.412;20.956;2023-05-21T13:28:25;95282.16;;;22.18;50.77
22047;BME280;11187;49.412;20.956;2023-05-21T13:31:21;95280.13;;;22.08;50.73
22047;BME280;11187;49.412;20.956;2023-05-21T13:33:54;95271.63;;;22.05;51.72
22047;BME280;11187;49.412;20.956;2023-05-21T13:36:44;95278.91;;;22.00;51.01
22047;BME280;11187;49.412;20.956;2023-05-21T13:39:17;95286.09;;;21.96;50.45
22047;BME280;11187;49.412;20.956;2023-05-21T13:42:06;95274.06;;;21.94;51.57
22047;BME280;11187;49.412;20.956;2023-05-21T13:44:39;95278.81;;;21.87;49.83
22047;BME280;11187;49.412;20.956;2023-05-21T13:47:33;95273.97;;;21.81;52.17
22047;BME280;11187;49.412;20.956;2023-05-21T13:50:27;95273.59;;;21.73;50.89
22047;BME280;11187;49.412;20.956;2023-05-21T13:53:04;95269.41;;;21.70;51.11
22047;BME280;11187;49.412;20.956;2023-05-21T13:55:51;95265.50;;;21.63;49.77
22047;BME280;11187;49.412;20.956;2023-05-21T13:58:25;95265.50;;;21.63;51.80
22047;BME280;11187;49.412;20.956;2023-05-21T14:01:21;95276.94;;;21.60;50.53
22047;BME280;11187;49.412;20.956;2023-05-21T14:04:19;95261.38;;;21.59;50.19
22047;BME280;11187;49.412;20.956;2023-05-21T14:06:53;95259.59;;;21.59;50.44
22047;BME280;11187;49.412;20.956;2023-05-21T14:09:39;95251.03;;;21.57;50.56
22047;BME280;11187;49.412;20.956;2023-05-21T14:12:12;95258.78;;;21.59;50.96
22047;BME280;11187;49.412;20.956;2023-05-21T14:15:00;95253.66;;;21.57;50.54
22047;BME280;11187;49.412;20.956;2023-05-21T14:17:34;95257.28;;;21.55;49.78
22047;BME280;11187;49.412;20.956;2023-05-21T14:20:21;95259.13;;;21.53;49.88
22047;BME280;11187;49.412;20.956;2023-05-21T14:22:54;95261.03;;;21.51;50.24
22047;BME280;11187;49.412;20.956;2023-05-21T14:25:41;95256.06;;;21.46;48.34
22047;BME280;11187;49.412;20.956;2023-05-21T14:28:14;95263.03;;;21.45;50.13
22047;BME280;11187;49.412;20.956;2023-05-21T14:31:08;95267.50;;;21.43;51.22